createdAt,value
2023-03-04T00:01:37.239Z,46.15
2023-03-04T00:04:25.771Z,43.95
2023-03-04T00:07:16.934Z,45.50
2023-03-04T00:10:04.790Z,43.85
2023-03-04T00:12:51.520Z,41.85
2023-03-04T00:15:38.717Z,41.83
2023-03-04T00:18:25.884Z,43.22
2023-03-04T00:21:14.162Z,41.78
2023-03-04T00:24:01.215Z,45.63
2023-03-04T00:26:48.692Z,42.72
2023-03-04T00:29:35.959Z,41.65
2023-03-04T00:32:22.968Z,42.33
2023-03-04T00:35:10.590Z,40.40
2023-03-04T00:37:59.181Z,39.17
2023-03-04T00:40:46.463Z,41.22
2023-03-04T00:43:33.746Z,42.47
2023-03-04T00:46:20.891Z,41.67
2023-03-04T00:49:07.965Z,42.47
2023-03-04T00:51:54.637Z,45.00
2023-03-04T00:54:43.088Z,42.53
2023-03-04T00:57:30.031Z,42.35
2023-03-04T01:00:17.645Z,48.50
2023-03-04T01:03:04.769Z,42.78
2023-03-04T01:05:51.819Z,44.63
2023-03-04T01:08:38.855Z,40.65
2023-03-04T01:11:27.524Z,40.67
2023-03-04T01:14:14.647Z,41.47
2023-03-04T01:17:01.907Z,41.55
2023-03-04T01:19:49.059Z,40.28
2023-03-04T01:22:36.220Z,40.15
2023-03-04T01:25:23.102Z,40.35
2023-03-04T01:28:11.543Z,41.70
2023-03-04T01:30:58.649Z,40.63
2023-03-04T01:33:45.692Z,42.13
2023-03-04T01:36:33.049Z,42.30
2023-03-04T01:39:20.184Z,39.10
2023-03-04T01:42:07.738Z,42.35
2023-03-04T01:44:56.042Z,41.13
2023-03-04T01:47:48.624Z,39.65
2023-03-04T01:50:36.747Z,40.47
2023-03-04T01:53:26.839Z,42.90
2023-03-04T01:56:18.062Z,40.10
2023-03-04T01:59:10.783Z,43.25
2023-03-04T02:02:01.530Z,39.67
2023-03-04T02:04:49.895Z,40.88
2023-03-04T02:07:37.090Z,41.05
2023-03-04T02:10:24.923Z,41.63
2023-03-04T02:13:12.973Z,40.05
2023-03-04T02:16:00.261Z,38.95
2023-03-04T02:18:49.792Z,41.85
2023-03-04T02:21:36.872Z,40.25
2023-03-04T02:24:30.548Z,37.80
2023-03-04T02:27:21.672Z,40.42
2023-03-04T02:30:11.577Z,39.83
2023-03-04T02:32:58.643Z,38.30
2023-03-04T02:35:46.171Z,36.55
2023-03-04T02:38:34.323Z,36.53
2023-03-04T02:41:25.535Z,37.28
2023-03-04T02:44:20.919Z,37.38
2023-03-04T02:47:10.992Z,38.38
2023-03-04T02:49:58.301Z,39.03
2023-03-04T02:52:45.129Z,37.28
2023-03-04T02:55:32.351Z,33.15
2023-03-04T02:58:20.141Z,36.90
2023-03-04T03:01:10.270Z,38.50
2023-03-04T03:03:57.730Z,43.20
2023-03-04T03:06:45.338Z,38.85
2023-03-04T03:09:32.736Z,37.58
2023-03-04T03:12:19.747Z,39.17
2023-03-04T03:15:07.706Z,37.08
2023-03-04T03:17:56.180Z,39.03
2023-03-04T03:20:43.196Z,39.40
2023-03-04T03:23:30.364Z,39.63
2023-03-04T03:26:19.590Z,38.85
2023-03-04T03:29:06.845Z,38.47
2023-03-04T03:31:54.207Z,42.83
2023-03-04T03:34:42.927Z,49.85
2023-03-04T03:37:30.091Z,46.95
2023-03-04T03:40:17.481Z,47.38
2023-03-04T03:43:04.897Z,45.08
2023-03-04T03:45:53.142Z,43.83
2023-03-04T03:48:40.492Z,42.55
2023-03-04T03:51:28.929Z,43.05
2023-03-04T03:54:16.234Z,41.05
2023-03-04T03:57:03.438Z,42.10
2023-03-04T03:59:50.574Z,41.05
2023-03-04T04:02:37.787Z,41.25
2023-03-04T04:05:24.966Z,41.58
2023-03-04T04:08:15.705Z,40.85
2023-03-04T04:11:03.008Z,43.03
2023-03-04T04:13:50.286Z,41.92
2023-03-04T04:16:37.587Z,44.30
2023-03-04T04:19:24.668Z,44.30
2023-03-04T04:22:16.182Z,42.80
2023-03-04T04:25:05.161Z,41.90
2023-03-04T04:27:52.276Z,42.13
2023-03-04T04:30:39.929Z,42.60
2023-03-04T04:33:27.208Z,43.30
2023-03-04T04:36:16.806Z,43.83
2023-03-04T04:39:04.840Z,40.08
2023-03-04T04:41:52.932Z,42.25
2023-03-04T04:44:40.408Z,44.65
2023-03-04T04:47:27.398Z,43.85
2023-03-04T04:50:14.778Z,44.38
2023-03-04T04:53:01.555Z,39.03
2023-03-04T04:55:48.476Z,43.58
2023-03-04T04:58:37.763Z,44.75
2023-03-04T05:01:25.795Z,43.30
2023-03-04T05:04:12.781Z,42.60
2023-03-04T05:06:59.901Z,43.50
2023-03-04T05:09:47.114Z,43.08
2023-03-04T05:12:34.208Z,42.50
2023-03-04T05:15:22.746Z,42.50
2023-03-04T05:18:09.957Z,41.22
2023-03-04T05:20:59.371Z,41.80
2023-03-04T05:23:47.486Z,42.70
2023-03-04T05:26:35.460Z,43.03
2023-03-04T05:29:22.539Z,45.03
2023-03-04T05:32:11.139Z,42.60
2023-03-04T05:34:58.258Z,41.65
2023-03-04T05:37:45.298Z,42.50
2023-03-04T05:40:33.101Z,43.40
2023-03-04T05:43:20.295Z,40.00
2023-03-04T05:46:07.435Z,39.22
2023-03-04T05:48:56.281Z,40.35
2023-03-04T05:51:43.650Z,40.33
2023-03-04T05:54:30.911Z,39.65
2023-03-04T05:57:18.169Z,40.00
2023-03-04T06:00:09.550Z,40.25
2023-03-04T06:02:59.589Z,40.17
2023-03-04T06:05:48.230Z,41.55
2023-03-04T06:08:35.079Z,42.70
2023-03-04T06:11:22.192Z,41.90
2023-03-04T06:14:09.595Z,41.22
2023-03-04T06:16:56.406Z,43.00
2023-03-04T06:19:43.827Z,41.35
2023-03-04T06:22:32.350Z,44.40
2023-03-04T06:25:20.303Z,41.10
2023-03-04T06:28:07.368Z,41.72
2023-03-04T06:30:55.233Z,43.55
2023-03-04T06:33:42.219Z,45.20
2023-03-04T06:36:29.408Z,44.28
2023-03-04T06:39:17.935Z,47.38
2023-03-04T06:42:05.006Z,46.15
2023-03-04T06:44:52.296Z,46.85
2023-03-04T06:47:40.147Z,45.63
2023-03-04T06:50:27.374Z,46.67
2023-03-04T06:53:14.520Z,48.30
2023-03-04T06:56:03.115Z,46.17
2023-03-04T06:58:49.958Z,48.05
2023-03-04T07:01:38.245Z,47.97
2023-03-04T07:04:25.549Z,47.03
2023-03-04T07:07:13.366Z,47.38
2023-03-04T07:10:00.753Z,46.83
2023-03-04T07:12:49.298Z,46.58
2023-03-04T07:15:36.718Z,44.80
2023-03-04T07:18:23.587Z,45.65
2023-03-04T07:21:10.938Z,47.47
2023-03-04T07:23:58.242Z,45.95
2023-03-04T07:26:45.276Z,44.88
2023-03-04T07:29:33.711Z,43.10
2023-03-04T07:32:21.184Z,43.67
2023-03-04T07:35:09.014Z,41.72
2023-03-04T07:37:56.380Z,41.80
2023-03-04T07:40:43.567Z,40.75
2023-03-04T07:43:30.834Z,39.90
2023-03-04T07:46:19.793Z,40.03
2023-03-04T07:49:07.019Z,41.95
2023-03-04T07:51:54.083Z,39.03
2023-03-04T07:54:41.373Z,39.63
2023-03-04T07:57:28.747Z,37.78
2023-03-04T08:00:18.245Z,39.47
2023-03-04T08:03:06.643Z,35.92
2023-03-04T08:05:53.748Z,37.40
2023-03-04T08:08:41.343Z,38.58
2023-03-04T08:11:29.815Z,37.00
2023-03-04T08:14:17.102Z,37.42
2023-03-04T08:17:04.339Z,36.80
2023-03-04T08:19:52.702Z,36.03
2023-03-04T08:22:39.913Z,36.80
2023-03-04T08:25:27.092Z,35.88
2023-03-04T08:28:14.814Z,35.38
2023-03-04T08:31:01.779Z,34.63
2023-03-04T08:33:48.894Z,33.33
2023-03-04T08:36:37.687Z,32.90
2023-03-04T08:39:24.992Z,30.80
2023-03-04T08:42:12.193Z,32.20
2023-03-04T08:44:59.503Z,34.63
2023-03-04T08:47:46.647Z,31.88
2023-03-04T08:50:33.605Z,33.22
2023-03-04T08:53:22.682Z,32.10
2023-03-04T08:56:11.204Z,29.98
2023-03-04T08:58:58.528Z,30.75
2023-03-04T09:01:45.554Z,32.50
2023-03-04T09:04:32.602Z,31.00
2023-03-04T09:07:19.721Z,88.65
2023-03-04T09:10:09.293Z,34.28
2023-03-04T09:12:56.388Z,30.90
2023-03-04T09:15:46.440Z,27.63
2023-03-04T09:18:33.524Z,27.73
2023-03-04T09:21:21.106Z,28.60
2023-03-04T09:24:08.107Z,26.05
2023-03-04T09:26:57.118Z,26.23
2023-03-04T09:29:44.604Z,24.13
2023-03-04T09:32:31.737Z,24.25
2023-03-04T09:35:18.962Z,24.42
2023-03-04T09:38:05.953Z,23.65
2023-03-04T09:40:52.938Z,23.10
2023-03-04T09:43:43.039Z,22.15
2023-03-04T09:46:36.765Z,23.55
2023-03-04T09:49:24.191Z,22.80
2023-03-04T09:52:20.137Z,22.85
2023-03-04T09:55:18.986Z,23.77
2023-03-04T09:58:15.054Z,23.90
2023-03-04T10:01:12.406Z,24.45
2023-03-04T10:04:05.084Z,23.30
2023-03-04T10:06:54.852Z,22.58
2023-03-04T10:09:48.723Z,25.27
2023-03-04T10:12:40.801Z,24.98
2023-03-04T10:15:35.224Z,26.27
2023-03-04T10:18:29.046Z,26.48
2023-03-04T10:21:24.473Z,24.83
2023-03-04T10:24:14.863Z,25.92
2023-03-04T10:27:07.129Z,25.63
2023-03-04T10:29:54.297Z,25.70
2023-03-04T10:32:48.038Z,24.05
2023-03-04T10:35:38.512Z,25.70
2023-03-04T10:38:26.126Z,24.95
2023-03-04T10:41:17.077Z,24.40
2023-03-04T10:44:06.343Z,23.73
2023-03-04T10:46:57.293Z,24.45
2023-03-04T10:49:53.681Z,23.38
2023-03-04T10:52:49.958Z,21.48
2023-03-04T10:55:46.391Z,20.88
2023-03-04T10:58:33.662Z,21.60
2023-03-04T11:01:25.484Z,21.58
2023-03-04T11:04:19.498Z,21.45
2023-03-04T11:07:11.079Z,21.40
2023-03-04T11:10:10.570Z,21.17
2023-03-04T11:13:02.058Z,21.90
2023-03-04T11:15:55.568Z,22.45
2023-03-04T11:18:48.653Z,21.50
2023-03-04T11:21:40.834Z,21.63
2023-03-04T11:24:31.210Z,22.60
2023-03-04T11:27:25.630Z,21.38
2023-03-04T11:30:27.122Z,21.92
2023-03-04T11:33:22.160Z,21.92
2023-03-04T11:36:23.951Z,22.77
2023-03-04T11:39:21.992Z,23.02
2023-03-04T11:42:25.539Z,22.75
2023-03-04T11:48:26.126Z,23.50
2023-03-04T11:51:22.438Z,23.35
2023-03-04T11:54:21.361Z,22.55
2023-03-04T11:57:18.506Z,24.75
2023-03-04T12:00:26.607Z,23.80
2023-03-04T12:03:52.260Z,24.67
2023-03-04T12:06:53.676Z,23.50
2023-03-04T12:09:48.780Z,23.35
2023-03-04T12:13:00.340Z,23.23
2023-03-04T12:15:57.811Z,25.00
2023-03-04T12:19:01.169Z,23.33
2023-03-04T12:22:06.539Z,22.65
2023-03-04T12:25:18.114Z,23.50
2023-03-04T12:28:06.412Z,22.35
2023-03-04T12:31:08.250Z,23.40
2023-03-04T12:34:09.396Z,23.10
2023-03-04T12:37:08.573Z,22.40
2023-03-04T12:40:17.389Z,21.17
2023-03-04T12:43:30.901Z,22.85
2023-03-04T12:46:34.191Z,21.92
2023-03-04T12:52:33.011Z,20.50
2023-03-04T12:55:30.936Z,20.02
2023-03-04T12:58:22.457Z,20.77
2023-03-04T13:01:17.293Z,18.67
2023-03-04T13:04:17.616Z,19.65
2023-03-04T13:07:16.383Z,17.85
2023-03-04T13:10:12.541Z,17.98
2023-03-04T13:13:02.141Z,17.25
2023-03-04T13:16:05.175Z,18.83
2023-03-04T13:18:53.111Z,18.70
2023-03-04T13:21:49.402Z,18.48
2023-03-04T13:24:52.449Z,18.38
2023-03-04T13:27:50.274Z,18.58
2023-03-04T13:31:08.819Z,18.85
2023-03-04T13:34:03.503Z,18.35
2023-03-04T13:37:12.499Z,19.27
2023-03-04T13:40:29.734Z,18.05
2023-03-04T13:43:20.046Z,17.98
2023-03-04T13:46:37.123Z,17.48
2023-03-04T13:49:26.505Z,18.77
2023-03-04T13:52:38.679Z,18.98
2023-03-04T13:55:38.262Z,17.90
2023-03-04T13:58:28.733Z,18.20
2023-03-04T14:01:28.148Z,19.33
2023-03-04T14:04:21.818Z,17.50
2023-03-04T14:10:25.118Z,17.35
2023-03-04T14:13:13.822Z,17.40
2023-03-04T14:16:01.910Z,18.00
2023-03-04T14:19:01.263Z,17.65
2023-03-04T14:21:49.294Z,17.92
2023-03-04T14:24:36.592Z,16.98
2023-03-04T14:27:26.107Z,17.20
2023-03-04T14:30:40.608Z,17.42
2023-03-04T14:33:32.074Z,16.48
2023-03-04T14:36:23.690Z,17.00
2023-03-04T14:39:18.865Z,16.95
2023-03-04T14:42:11.715Z,16.65
2023-03-04T14:45:02.726Z,17.33
2023-03-04T14:47:57.838Z,17.15
2023-03-04T14:50:50.492Z,16.52
2023-03-04T14:53:38.570Z,14.85
2023-03-04T14:56:30.215Z,15.85
2023-03-04T14:59:17.770Z,15.35
2023-03-04T15:02:22.833Z,15.60
2023-03-04T15:05:17.207Z,15.25
2023-03-04T15:08:08.241Z,14.00
2023-03-04T15:11:01.264Z,15.38
2023-03-04T15:13:50.707Z,14.20
2023-03-04T15:16:55.362Z,14.48
2023-03-04T15:19:47.727Z,14.93
2023-03-04T15:22:35.657Z,15.38
2023-03-04T15:25:24.419Z,14.95
2023-03-04T15:28:27.623Z,13.70
2023-03-04T15:31:19.247Z,15.18
2023-03-04T15:34:14.412Z,14.18
2023-03-04T15:37:03.504Z,13.88
2023-03-04T15:39:53.554Z,14.45
2023-03-04T15:42:41.205Z,13.75
2023-03-04T15:45:36.874Z,14.70
2023-03-04T15:48:24.537Z,14.50
2023-03-04T15:51:17.034Z,13.52
2023-03-04T15:54:06.570Z,14.80
2023-03-04T15:56:54.210Z,14.30
2023-03-04T15:59:41.870Z,14.77
2023-03-04T16:02:29.220Z,14.63
2023-03-04T16:05:17.732Z,15.30
2023-03-04T16:08:05.141Z,14.25
2023-03-04T16:10:55.676Z,14.80
2023-03-04T16:13:43.446Z,14.57
2023-03-04T16:16:30.628Z,14.30
2023-03-04T16:19:18.595Z,14.52
2023-03-04T16:22:06.262Z,14.65
2023-03-04T16:24:55.593Z,14.15
2023-03-04T16:27:45.073Z,14.52
2023-03-04T16:30:32.903Z,14.38
2023-03-04T16:33:19.701Z,13.50
2023-03-04T16:36:14.791Z,13.88
2023-03-04T16:39:07.487Z,14.30
2023-03-04T16:41:55.119Z,14.97
2023-03-04T16:44:44.373Z,14.30
2023-03-04T16:47:31.365Z,14.63
2023-03-04T16:50:21.251Z,13.85
2023-03-04T16:53:23.253Z,14.05
2023-03-04T16:56:14.924Z,13.95
2023-03-04T16:59:02.177Z,14.18
2023-03-04T17:01:51.009Z,14.48
2023-03-04T17:04:38.284Z,15.05
2023-03-04T17:07:25.411Z,13.90
2023-03-04T17:10:14.515Z,14.70
2023-03-04T17:13:01.871Z,15.05
2023-03-04T17:15:49.298Z,14.82
2023-03-04T17:18:38.981Z,15.48
2023-03-04T17:21:29.353Z,14.05
2023-03-04T17:24:16.410Z,14.18
2023-03-04T17:27:03.653Z,15.02
2023-03-04T17:29:53.222Z,14.38
2023-03-04T17:32:40.366Z,14.98
2023-03-04T17:35:28.860Z,15.68
2023-03-04T17:38:17.183Z,15.85
2023-03-04T17:41:05.101Z,14.63
2023-03-04T17:43:54.849Z,16.60
2023-03-04T17:46:41.996Z,15.73
2023-03-04T17:49:28.959Z,15.50
2023-03-04T17:52:17.755Z,15.95
2023-03-04T17:55:04.781Z,16.40
2023-03-04T17:57:53.281Z,16.40
2023-03-04T18:00:40.495Z,16.90
2023-03-04T18:03:27.557Z,16.55
2023-03-04T18:06:14.839Z,16.05
2023-03-04T18:09:03.480Z,17.00
2023-03-04T18:11:50.883Z,16.88
2023-03-04T18:14:37.795Z,15.85
2023-03-04T18:17:24.884Z,16.60
2023-03-04T18:20:13.729Z,16.92
2023-03-04T18:23:00.993Z,17.55
2023-03-04T18:25:49.785Z,17.05
2023-03-04T18:28:37.334Z,16.73
2023-03-04T18:31:31.501Z,16.48
2023-03-04T18:34:18.596Z,16.90
2023-03-04T18:37:05.672Z,17.50
2023-03-04T18:39:52.779Z,16.85
2023-03-04T18:42:44.227Z,16.67
2023-03-04T18:45:31.606Z,16.33
2023-03-04T18:48:18.777Z,16.17
2023-03-04T18:51:06.389Z,16.17
2023-03-04T18:53:53.470Z,16.60
2023-03-04T18:56:44.419Z,18.02
2023-03-04T18:59:37.758Z,16.52
2023-03-04T19:02:30.071Z,16.63
2023-03-04T19:05:21.242Z,17.33
2023-03-04T19:08:08.636Z,17.27
2023-03-04T19:10:55.782Z,17.02
2023-03-04T19:13:43.126Z,17.15
2023-03-04T19:16:31.495Z,17.83
2023-03-04T19:19:18.383Z,18.33
2023-03-04T19:22:07.039Z,17.48
2023-03-04T19:24:54.152Z,17.13
2023-03-04T19:27:40.994Z,17.27
2023-03-04T19:30:28.137Z,18.08
2023-03-04T19:33:16.565Z,17.73
2023-03-04T19:36:04.944Z,17.45
2023-03-04T19:38:52.175Z,18.73
2023-03-04T19:41:41.217Z,18.20
2023-03-04T19:44:28.146Z,17.92
2023-03-04T19:47:15.319Z,17.73
2023-03-04T19:50:03.923Z,18.45
2023-03-04T19:52:51.182Z,17.42
2023-03-04T19:55:39.293Z,18.05
2023-03-04T19:58:26.516Z,18.13
2023-03-04T20:01:25.825Z,18.27
2023-03-04T20:04:15.394Z,18.20
2023-03-04T20:07:03.942Z,17.95
2023-03-04T20:09:51.196Z,16.55
2023-03-04T20:12:38.335Z,18.45
2023-03-04T20:15:25.304Z,19.45
2023-03-04T20:18:12.247Z,18.33
2023-03-04T20:20:59.668Z,18.80
2023-03-04T20:23:48.603Z,18.20
2023-03-04T20:26:35.764Z,18.33
2023-03-04T20:29:22.816Z,18.85
2023-03-04T20:32:10.009Z,18.38
2023-03-04T20:34:58.593Z,19.20
2023-03-04T20:37:46.558Z,19.55
2023-03-04T20:40:36.120Z,20.92
2023-03-04T20:43:24.461Z,18.83
2023-03-04T20:46:27.903Z,18.02
2023-03-04T20:49:16.830Z,18.95
2023-03-04T20:52:06.775Z,19.08
2023-03-04T20:54:53.991Z,19.13
2023-03-04T20:57:42.562Z,19.95
2023-03-04T21:00:30.783Z,19.98
2023-03-04T21:03:18.455Z,20.13
2023-03-04T21:06:06.594Z,19.15
2023-03-04T21:08:53.971Z,18.73
2023-03-04T21:11:41.349Z,19.02
2023-03-04T21:14:31.530Z,19.73
2023-03-04T21:17:19.028Z,19.67
2023-03-04T21:20:06.727Z,19.25
2023-03-04T21:22:54.082Z,18.55
2023-03-04T21:25:42.363Z,18.33
2023-03-04T21:28:29.312Z,19.27
2023-03-04T21:31:21.230Z,18.23
2023-03-04T21:34:16.276Z,19.20
2023-03-04T21:37:03.782Z,19.05
2023-03-04T21:39:50.758Z,19.77
2023-03-04T21:42:37.781Z,18.80
2023-03-04T21:45:24.850Z,20.05
2023-03-04T21:48:13.490Z,19.10
2023-03-04T21:51:04.650Z,20.63
2023-03-04T21:53:51.719Z,20.15
2023-03-04T21:56:39.369Z,19.42
2023-03-04T21:59:26.295Z,20.17
2023-03-04T22:02:17.556Z,20.88
2023-03-04T22:05:06.353Z,20.40
2023-03-04T22:07:53.312Z,21.90
2023-03-04T22:10:41.532Z,21.38
2023-03-04T22:13:28.654Z,20.02
2023-03-04T22:16:15.765Z,21.65
2023-03-04T22:19:02.959Z,20.20
2023-03-04T22:21:52.762Z,21.88
2023-03-04T22:24:39.784Z,20.25
2023-03-04T22:27:26.687Z,21.08
2023-03-04T22:30:16.618Z,21.52
2023-03-04T22:33:04.260Z,21.52
2023-03-04T22:35:51.621Z,20.70
2023-03-04T22:38:40.159Z,21.30
2023-03-04T22:41:27.398Z,21.83
2023-03-04T22:44:15.153Z,23.98
2023-03-04T22:47:02.369Z,20.20
2023-03-04T22:49:49.468Z,21.63
2023-03-04T22:52:36.906Z,21.52
2023-03-04T22:55:25.502Z,23.58
2023-03-04T22:58:12.948Z,21.80
2023-03-04T23:01:00.118Z,22.00
2023-03-04T23:03:48.704Z,21.75
2023-03-04T23:06:36.425Z,21.17
2023-03-04T23:09:23.469Z,22.95
2023-03-04T23:12:11.945Z,21.77
2023-03-04T23:14:59.847Z,23.38
2023-03-04T23:17:47.814Z,21.05
2023-03-04T23:20:35.009Z,22.27
2023-03-04T23:23:22.288Z,22.55
2023-03-04T23:26:15.659Z,21.52
2023-03-04T23:29:07.120Z,21.25
2023-03-04T23:31:54.158Z,23.27
2023-03-04T23:34:41.302Z,20.35
2023-03-04T23:37:28.487Z,21.27
2023-03-04T23:40:15.414Z,21.85
2023-03-04T23:43:02.872Z,20.05
2023-03-04T23:45:51.400Z,20.58
2023-03-04T23:48:38.908Z,21.58
2023-03-04T23:51:29.154Z,21.05
2023-03-04T23:54:16.783Z,22.58
2023-03-04T23:57:04.122Z,21.38
2023-03-04T23:59:51.433Z,21.65
